Time;durP1;ratioP1;P1;durP2;ratioP2;P2;SDS_P1;SDS_P2;PMS_P1;PMS_P2;Temp;Humidity;BMP_temperature;BMP_pressure;BME280_temperature;BME280_humidity;BME280_pressure;Samples;Min_cycle;Max_cycle;Signal;HPM_P1;HPM_P2
2022/11/26 00:02:26;;;;;;;;;;;;;;;27.96;26.14;101246.16;4976676;28;1142;-22
2022/11/26 00:04:51;;;;;;;;;;;;;;;27.84;26.69;101256.50;4978185;28;1206;-23
2022/11/26 00:07:17;;;;;;;;;;;;;;;28.19;25.94;101260.75;4988269;28;1165;-23
2022/11/26 00:09:43;;;;;;;;;;;;;;;28.44;25.62;101256.06;4959903;28;1134;-23
2022/11/26 00:12:15;;;;;;;;;;;;;;;28.38;25.12;101258.66;4978225;28;1960;-25
2022/11/26 00:14:40;;;;;;;;;;;;;;;27.76;26.16;101251.13;4979958;28;1122;-23
2022/11/26 00:17:06;;;;;;;;;;;;;;;28.12;25.81;101255.22;4980441;28;1178;-22
2022/11/26 00:19:31;;;;;;;;;;;;;;;28.33;25.59;101246.47;4980872;28;1208;-23
2022/11/26 00:21:56;;;;;;;;;;;;;;;28.51;25.20;101248.03;4980316;28;1161;-23
2022/11/26 00:24:24;;;;;;;;;;;;;;;27.91;26.12;101253.13;4979065;28;1142;-22
2022/11/26 00:26:50;;;;;;;;;;;;;;;27.96;26.09;101261.56;4980368;28;1161;-22
2022/11/26 00:29:15;;;;;;;;;;;;;;;27.92;25.95;101263.75;4980150;28;1232;-23
2022/11/26 00:31:40;;;;;;;;;;;;;;;28.14;25.85;101269.41;4981111;28;1216;-23
2022/11/26 00:34:06;;;;;;;;;;;;;;;28.41;25.54;101279.94;4979606;28;1914;-27
2022/11/26 00:36:31;;;;;;;;;;;;;;;27.80;25.94;101284.91;4979954;28;1039;-23
2022/11/26 00:39:06;;;;;;;;;;;;;;;27.68;26.36;101297.97;4963230;28;1201;-24
2022/11/26 00:41:32;;;;;;;;;;;;;;;28.08;25.84;101297.97;4980449;28;1189;-23
2022/11/26 00:43:57;;;;;;;;;;;;;;;28.34;25.68;101302.25;4962339;28;1247;-23
2022/11/26 00:46:23;;;;;;;;;;;;;;;28.24;25.62;101299.75;4979433;28;1158;-22
2022/11/26 00:48:48;;;;;;;;;;;;;;;27.74;26.09;101301.84;4980016;28;976;-22
2022/11/26 00:51:17;;;;;;;;;;;;;;;27.93;26.00;101297.88;4980193;28;1146;-22
2022/11/26 00:53:43;;;;;;;;;;;;;;;28.19;25.64;101298.63;4979933;28;1914;-24
2022/11/26 00:56:18;;;;;;;;;;;;;;;28.44;25.13;101293.94;4961865;28;1225;-23
2022/11/26 00:58:44;;;;;;;;;;;;;;;27.96;25.95;101307.53;4979628;28;1166;-23
2022/11/26 01:01:13;;;;;;;;;;;;;;;27.73;26.35;101305.53;4979859;28;1138;-24
2022/11/26 01:03:41;;;;;;;;;;;;;;;27.99;25.95;101302.56;4979077;28;1189;-24
2022/11/26 01:06:30;;;;;;;;;;;;;;;28.22;25.94;101303.66;4979254;28;1098;-23
2022/11/26 01:08:55;;;;;;;;;;;;;;;28.56;25.55;101307.06;4969361;28;1486;-23
2022/11/26 01:11:21;;;;;;;;;;;;;;;27.89;26.18;101307.38;4979754;28;1154;-24
2022/11/26 01:13:47;;;;;;;;;;;;;;;27.94;26.33;101304.13;4979071;28;1913;-22
2022/11/26 01:16:22;;;;;;;;;;;;;;;28.08;25.95;101311.50;4979397;28;1220;-26
2022/11/26 01:18:48;;;;;;;;;;;;;;;28.40;25.47;101310.69;4979403;28;1177;-24
2022/11/26 01:21:13;;;;;;;;;;;;;;;28.26;25.64;101323.09;4979541;28;1257;-23
2022/11/26 01:23:38;;;;;;;;;;;;;;;27.80;26.10;101309.25;4978869;28;1204;-23
2022/11/26 01:26:04;;;;;;;;;;;;;;;27.96;26.09;101297.53;4979096;28;1248;-24
2022/11/26 01:28:29;;;;;;;;;;;;;;;28.24;25.93;101302.47;4979235;28;1217;-24
2022/11/26 01:30:54;;;;;;;;;;;;;;;28.57;25.31;101306.03;4979295;28;1177;-25
2022/11/26 01:33:19;;;;;;;;;;;;;;;28.14;25.32;101309.97;4979508;28;1968;-23
2022/11/26 01:35:45;;;;;;;;;;;;;;;27.62;26.21;101314.84;4978740;28;1162;-23
2022/11/26 01:38:11;;;;;;;;;;;;;;;28.09;25.95;101306.94;4978889;28;1212;-23
2022/11/26 01:40:37;;;;;;;;;;;;;;;28.43;25.51;101318.44;4962478;28;1205;-22
2022/11/26 01:43:05;;;;;;;;;;;;;;;28.72;24.93;101327.75;4979084;28;1130;-23
2022/11/26 01:45:31;;;;;;;;;;;;;;;28.03;25.91;101330.13;4979013;28;1165;-25
2022/11/26 01:47:56;;;;;;;;;;;;;;;28.10;25.73;101338.38;4978264;28;1173;-24
2022/11/26 01:50:30;;;;;;;;;;;;;;;27.92;26.08;101336.75;4979071;28;1198;-23
2022/11/26 01:52:58;;;;;;;;;;;;;;;27.97;25.93;101328.97;4978715;28;1969;-22
2022/11/26 01:55:24;;;;;;;;;;;;;;;28.17;25.87;101330.41;4978499;28;1126;-23
2022/11/26 01:57:49;;;;;;;;;;;;;;;28.54;25.37;101341.56;4978633;28;1134;-22
2022/11/26 02:00:15;;;;;;;;;;;;;;;28.27;25.01;101322.91;4978361;28;1099;-23
2022/11/26 02:02:40;;;;;;;;;;;;;;;27.79;26.10;101329.19;4978911;28;1189;-24
2022/11/26 02:05:17;;;;;;;;;;;;;;;28.04;26.03;101326.41;4978196;28;1110;-22
2022/11/26 02:07:42;;;;;;;;;;;;;;;28.54;25.39;101333.47;4960504;28;1170;-25
2022/11/26 02:10:08;;;;;;;;;;;;;;;28.69;24.82;101345.22;4978570;28;1137;-22
2022/11/26 02:12:33;;;;;;;;;;;;;;;27.97;25.28;101342.50;4978793;28;1906;-23
2022/11/26 02:14:59;;;;;;;;;;;;;;;27.80;25.30;101348.94;4978105;28;1149;-24
2022/11/26 02:17:24;;;;;;;;;;;;;;;27.83;26.02;101352.16;4978157;28;1169;-23
2022/11/26 02:19:58;;;;;;;;;;;;;;;27.95;25.48;101360.75;4978114;28;1212;-24
2022/11/26 02:22:26;;;;;;;;;;;;;;;28.18;25.46;101361.84;4978031;28;1598;-23
2022/11/26 02:25:01;;;;;;;;;;;;;;;28.45;25.01;101365.13;4977418;28;1044;-23
2022/11/26 02:27:38;;;;;;;;;;;;;;;28.69;24.69;101369.56;4978297;28;1182;-24
2022/11/26 02:30:03;;;;;;;;;;;;;;;27.90;24.98;101373.09;4960906;28;1154;-23
2022/11/26 02:32:31;;;;;;;;;;;;;;;27.87;25.17;101372.44;4978201;28;1977;-23
2022/11/26 02:34:56;;;;;;;;;;;;;;;28.29;24.28;101375.00;4977470;28;1146;-22
2022/11/26 02:37:27;;;;;;;;;;;;;;;28.64;23.69;101380.09;4977910;28;880;-23
2022/11/26 02:39:52;;;;;;;;;;;;;;;27.94;23.30;101372.59;4964389;28;1398;-22
2022/11/26 02:42:20;;;;;;;;;;;;;;;27.51;23.51;101370.94;4978236;28;1169;-22
2022/11/26 02:44:45;;;;;;;;;;;;;;;27.85;23.95;101376.31;4978020;28;1133;-23
2022/11/26 02:47:11;;;;;;;;;;;;;;;27.97;23.91;101374.94;4978053;28;1158;-23
2022/11/26 02:49:37;;;;;;;;;;;;;;;28.25;23.42;101373.66;4976586;28;910;-23
2022/11/26 02:52:02;;;;;;;;;;;;;;;28.62;22.63;101375.84;4960734;28;1960;-23
2022/11/26 02:54:27;;;;;;;;;;;;;;;28.71;22.50;101386.47;4960016;28;1185;-23
2022/11/26 02:56:53;;;;;;;;;;;;;;;27.95;23.37;101386.94;4978001;28;1102;-22
2022/11/26 02:59:18;;;;;;;;;;;;;;;27.95;23.34;101385.09;4976826;28;1130;-26
2022/11/26 03:02:02;;;;;;;;;;;;;;;28.32;22.89;101387.31;4977427;28;992;-23
2022/11/26 03:04:29;;;;;;;;;;;;;;;28.61;22.57;101391.28;4959912;28;1174;-23
2022/11/26 03:06:55;;;;;;;;;;;;;;;28.71;22.23;101391.88;4960350;28;1134;-23
2022/11/26 03:09:21;;;;;;;;;;;;;;;27.96;22.36;101389.47;4959945;28;1114;-23
2022/11/26 03:11:46;;;;;;;;;;;;;;;27.79;23.34;101401.34;4977172;28;1178;-22
2022/11/26 03:14:11;;;;;;;;;;;;;;;27.88;22.92;101405.72;4977353;28;1902;-22
2022/11/26 03:16:36;;;;;;;;;;;;;;;28.20;22.96;101414.75;4977321;28;1126;-24
2022/11/26 03:19:02;;;;;;;;;;;;;;;28.49;22.61;101420.59;4977309;28;1192;-26
2022/11/26 03:21:27;;;;;;;;;;;;;;;28.75;22.10;101424.84;4976982;28;1126;-22
2022/11/26 03:23:52;;;;;;;;;;;;;;;28.34;22.19;101426.72;4976340;28;1031;-23
2022/11/26 03:26:18;;;;;;;;;;;;;;;27.75;22.75;101423.31;4977283;28;1153;-23
2022/11/26 03:28:43;;;;;;;;;;;;;;;28.14;22.76;101422.72;4977007;28;1169;-23
2022/11/26 03:31:08;;;;;;;;;;;;;;;28.48;22.43;101432.41;4976689;28;1118;-22
2022/11/26 03:33:33;;;;;;;;;;;;;;;28.75;21.75;101427.56;4976820;28;1983;-25
2022/11/26 03:35:59;;;;;;;;;;;;;;;27.93;22.08;101435.78;4976411;28;1165;-25
2022/11/26 03:38:24;;;;;;;;;;;;;;;27.43;22.76;101437.63;4977323;28;1209;-23
2022/11/26 03:40:56;;;;;;;;;;;;;;;27.87;22.81;101422.97;4976541;28;1130;-23
2022/11/26 03:43:22;;;;;;;;;;;;;;;28.08;22.60;101425.09;4964039;28;1165;-23
2022/11/26 03:45:47;;;;;;;;;;;;;;;28.27;22.44;101425.72;4976304;28;1167;-25
2022/11/26 03:48:12;;;;;;;;;;;;;;;28.57;22.29;101422.41;4976352;28;1193;-23
2022/11/26 03:50:37;;;;;;;;;;;;;;;28.56;22.16;101416.16;4976455;28;1141;-23
2022/11/26 03:53:03;;;;;;;;;;;;;;;27.77;23.03;101409.63;4976731;28;1902;-22
2022/11/26 03:55:28;;;;;;;;;;;;;;;28.07;22.79;101417.16;4977026;28;1142;-22
2022/11/26 03:57:53;;;;;;;;;;;;;;;28.34;22.70;101423.19;4976642;28;1191;-23
2022/11/26 04:00:19;;;;;;;;;;;;;;;28.60;22.24;101417.50;4976752;28;1205;-24
2022/11/26 04:02:44;;;;;;;;;;;;;;;28.13;22.21;101418.34;4976762;28;1174;-24
2022/11/26 04:05:10;;;;;;;;;;;;;;;27.67;22.90;101417.88;4976383;28;1173;-23
2022/11/26 04:07:35;;;;;;;;;;;;;;;27.80;22.88;101413.84;4977112;28;1130;-24
2022/11/26 04:10:00;;;;;;;;;;;;;;;28.19;22.98;101425.75;4976652;28;1149;-23
2022/11/26 04:12:25;;;;;;;;;;;;;;;28.38;22.88;101429.09;4975559;28;1965;-23
2022/11/26 04:14:51;;;;;;;;;;;;;;;28.80;22.26;101436.00;4977092;28;1174;-22
2022/11/26 04:17:16;;;;;;;;;;;;;;;28.05;22.49;101438.13;4976135;28;1457;-24
2022/11/26 04:19:41;;;;;;;;;;;;;;;27.56;22.74;101435.28;4976933;28;967;-23
2022/11/26 04:22:07;;;;;;;;;;;;;;;28.23;22.38;101433.34;4976171;28;1122;-22
2022/11/26 04:24:32;;;;;;;;;;;;;;;28.35;22.25;101433.84;4975431;28;1130;-23
2022/11/26 04:26:57;;;;;;;;;;;;;;;28.64;21.99;101426.13;4976085;28;1067;-23
2022/11/26 04:29:23;;;;;;;;;;;;;;;26.92;17.49;101422.34;4976780;28;1181;-26
2022/11/26 04:31:48;;;;;;;;;;;;;;;24.01;18.94;101425.03;4976665;28;1271;-24
2022/11/26 04:34:13;;;;;;;;;;;;;;;24.24;19.89;101427.41;4975955;28;1946;-23
2022/11/26 04:36:38;;;;;;;;;;;;;;;24.03;19.67;101420.38;4976294;28;1178;-24
2022/11/26 04:39:04;;;;;;;;;;;;;;;24.45;19.73;101429.03;4971850;28;1966;-24
2022/11/26 04:41:29;;;;;;;;;;;;;;;25.01;19.85;101431.72;4976343;28;1471;-26
2022/11/26 04:43:54;;;;;;;;;;;;;;;25.25;19.30;101435.66;4975879;28;1141;-24
2022/11/26 04:46:19;;;;;;;;;;;;;;;25.46;18.75;101453.34;4976353;28;1280;-23
2022/11/26 04:48:45;;;;;;;;;;;;;;;25.94;18.45;101463.03;4976103;28;1185;-24
2022/11/26 04:51:10;;;;;;;;;;;;;;;26.85;19.17;101477.03;4976265;28;1154;-22
2022/11/26 04:53:35;;;;;;;;;;;;;;;27.35;18.66;101481.72;4975005;28;1959;-22
2022/11/26 04:56:01;;;;;;;;;;;;;;;27.80;18.40;101486.81;4976260;28;1130;-22
2022/11/26 04:58:26;;;;;;;;;;;;;;;27.97;18.30;101487.66;4978469;28;1170;-22
2022/11/26 05:00:51;;;;;;;;;;;;;;;28.16;17.73;101494.53;4979191;28;1118;-22
2022/11/26 05:03:17;;;;;;;;;;;;;;;26.89;18.17;101489.16;4979942;28;1240;-22
2022/11/26 05:05:42;;;;;;;;;;;;;;;24.58;19.72;101502.16;4979076;28;1173;-22
2022/11/26 05:08:07;;;;;;;;;;;;;;;24.08;19.58;101498.72;4979575;28;1141;-23
2022/11/26 05:10:32;;;;;;;;;;;;;;;24.45;20.02;101501.63;4978873;28;2664;-22
2022/11/26 05:12:58;;;;;;;;;;;;;;;25.92;19.82;101490.13;4978063;28;1957;-21
2022/11/26 05:15:23;;;;;;;;;;;;;;;25.78;21.71;101496.94;4978701;28;1184;-22
2022/11/26 05:17:48;;;;;;;;;;;;;;;26.48;20.59;101497.09;4979578;28;1169;-23
2022/11/26 05:20:14;;;;;;;;;;;;;;;25.78;21.99;101500.47;4979540;28;1193;-22
2022/11/26 05:22:39;;;;;;;;;;;;;;;26.31;21.76;101498.81;4961932;28;1352;-23
2022/11/26 05:25:05;;;;;;;;;;;;;;;26.23;22.09;101496.91;4977968;28;1199;-23
2022/11/26 05:27:30;;;;;;;;;;;;;;;26.36;22.48;101499.22;4979476;28;1169;-23
2022/11/26 05:29:55;;;;;;;;;;;;;;;26.31;22.91;101493.44;4979278;28;1126;-22
2022/11/26 05:32:21;;;;;;;;;;;;;;;26.35;23.23;101500.22;4979454;28;1910;-22
2022/11/26 05:34:46;;;;;;;;;;;;;;;25.98;23.36;101486.81;4978665;28;1145;-23
2022/11/26 05:37:11;;;;;;;;;;;;;;;27.22;22.52;101491.16;4978911;28;1212;-22
2022/11/26 05:39:37;;;;;;;;;;;;;;;27.41;22.43;101491.03;4979193;28;2407;-22
2022/11/26 05:42:02;;;;;;;;;;;;;;;27.68;21.84;101500.69;4978890;28;1133;-22
2022/11/26 05:44:27;;;;;;;;;;;;;;;26.92;22.89;101492.56;4978092;28;1141;-22
2022/11/26 05:46:52;;;;;;;;;;;;;;;26.70;23.13;101503.78;4978653;28;1162;-23
2022/11/26 05:49:18;;;;;;;;;;;;;;;26.96;22.94;101512.84;4978454;28;1122;-22
2022/11/26 05:51:43;;;;;;;;;;;;;;;26.78;23.61;101516.44;4978851;28;1118;-22
2022/11/26 05:54:11;;;;;;;;;;;;;;;27.26;23.20;101514.13;4978780;28;1965;-23
2022/11/26 05:56:36;;;;;;;;;;;;;;;27.80;22.75;101520.13;4961067;28;1205;-22
2022/11/26 05:59:01;;;;;;;;;;;;;;;27.33;22.98;101530.50;4978405;28;1165;-22
2022/11/26 06:01:27;;;;;;;;;;;;;;;28.05;22.07;101538.19;4978586;28;1212;-23
2022/11/26 06:03:52;;;;;;;;;;;;;;;27.28;23.27;101540.97;4977625;28;1192;-22
2022/11/26 06:06:17;;;;;;;;;;;;;;;26.92;23.78;101543.84;4978646;28;1228;-22
2022/11/26 06:08:42;;;;;;;;;;;;;;;26.70;24.25;101546.09;4977536;28;1939;-22
2022/11/26 06:11:09;;;;;;;;;;;;;;;26.76;24.38;101543.59;4978159;28;1217;-22
2022/11/26 06:13:35;;;;;;;;;;;;;;;26.82;24.57;101544.84;4978143;28;1906;-24
2022/11/26 06:16:00;;;;;;;;;;;;;;;27.20;23.94;101549.03;4977964;28;1150;-23
2022/11/26 06:18:25;;;;;;;;;;;;;;;27.59;23.19;101547.63;4978088;28;1102;-23
2022/11/26 06:20:51;;;;;;;;;;;;;;;27.16;23.72;101547.69;4978265;28;1149;-21
2022/11/26 06:23:16;;;;;;;;;;;;;;;27.20;24.05;101555.28;4977755;28;1198;-22
2022/11/26 06:25:41;;;;;;;;;;;;;;;27.61;23.58;101559.13;4977573;28;1257;-23
2022/11/26 06:28:07;;;;;;;;;;;;;;;27.77;23.30;101563.72;4977876;28;1122;-23
2022/11/26 06:30:32;;;;;;;;;;;;;;;28.13;23.04;101556.28;4978506;28;1141;-23
2022/11/26 06:32:57;;;;;;;;;;;;;;;27.72;23.74;101563.38;4978166;28;1974;-23
2022/11/26 06:35:22;;;;;;;;;;;;;;;27.56;24.09;101566.88;4977716;28;1094;-23
2022/11/26 06:37:48;;;;;;;;;;;;;;;27.18;24.30;101575.34;4977106;28;1181;-23
2022/11/26 06:40:17;;;;;;;;;;;;;;;27.44;24.34;101560.94;4971924;28;2114;-23
2022/11/26 06:42:46;;;;;;;;;;;;;;;27.89;23.92;101566.09;4978160;28;1189;-23
2022/11/26 06:45:11;;;;;;;;;;;;;;;28.05;23.32;101570.63;4977840;28;1125;-22
2022/11/26 06:47:36;;;;;;;;;;;;;;;28.14;23.18;101575.06;4977905;28;1209;-24
2022/11/26 06:50:02;;;;;;;;;;;;;;;27.66;23.76;101580.22;4977729;28;1130;-22
2022/11/26 06:52:27;;;;;;;;;;;;;;;27.77;23.55;101574.53;4977798;28;1894;-23
2022/11/26 06:54:53;;;;;;;;;;;;;;;27.22;24.38;101576.75;4977625;28;1145;-22
2022/11/26 06:57:18;;;;;;;;;;;;;;;27.20;24.53;101574.19;4977430;28;1102;-23
2022/11/26 06:59:43;;;;;;;;;;;;;;;27.66;24.38;101580.22;4977338;28;1121;-23
2022/11/26 07:02:09;;;;;;;;;;;;;;;28.20;23.44;101579.78;4977207;28;1133;-22
2022/11/26 07:04:34;;;;;;;;;;;;;;;28.27;23.32;101584.50;4960099;28;1177;-23
2022/11/26 07:06:59;;;;;;;;;;;;;;;27.86;23.76;101578.09;4976709;28;1181;-23
2022/11/26 07:09:24;;;;;;;;;;;;;;;27.71;24.09;101586.03;4976816;28;2514;-22
2022/11/26 07:11:50;;;;;;;;;;;;;;;27.26;24.73;101587.03;4977648;28;1193;-25
2022/11/26 07:14:15;;;;;;;;;;;;;;;26.92;25.43;101593.31;4976599;28;1902;-23
2022/11/26 07:16:40;;;;;;;;;;;;;;;27.01;25.32;101588.75;4977669;28;1134;-24
2022/11/26 07:19:06;;;;;;;;;;;;;;;27.90;23.99;101595.66;4976518;28;1161;-22
2022/11/26 07:21:31;;;;;;;;;;;;;;;27.47;24.86;101579.50;4977139;28;1133;-23
2022/11/26 07:23:56;;;;;;;;;;;;;;;26.35;26.31;101586.53;4976321;28;1201;-22
2022/11/26 07:26:22;;;;;;;;;;;;;;;26.58;26.11;101583.31;4976720;28;1126;-23
2022/11/26 07:28:47;;;;;;;;;;;;;;;27.00;25.12;101587.09;4977033;28;1169;-24
2022/11/26 07:31:13;;;;;;;;;;;;;;;27.47;24.95;101596.56;4976710;28;1138;-22
2022/11/26 07:33:39;;;;;;;;;;;;;;;26.73;25.89;101597.06;4976668;28;1914;-22
2022/11/26 07:36:05;;;;;;;;;;;;;;;26.88;25.50;101595.47;4976793;28;1071;-22
2022/11/26 07:38:30;;;;;;;;;;;;;;;27.17;25.35;101597.97;4976281;28;2243;-22
2022/11/26 07:41:02;;;;;;;;;;;;;;;26.61;25.96;101604.59;4977141;28;1177;-22
2022/11/26 07:43:28;;;;;;;;;;;;;;;27.38;25.23;101598.41;4976754;28;1066;-22
2022/11/26 07:45:53;;;;;;;;;;;;;;;27.30;25.04;101595.69;4976466;28;1106;-22
2022/11/26 07:48:18;;;;;;;;;;;;;;;26.89;25.80;101599.03;4976779;28;1185;-23
2022/11/26 07:50:43;;;;;;;;;;;;;;;25.93;27.42;101610.44;4976574;28;1177;-24
2022/11/26 07:53:09;;;;;;;;;;;;;;;25.88;27.83;101616.28;4976169;28;1898;-24
2022/11/26 07:55:36;;;;;;;;;;;;;;;26.21;27.14;101607.63;4976846;28;1236;-21
2022/11/26 07:58:02;;;;;;;;;;;;;;;26.03;27.55;101610.34;4976899;28;1227;-23
2022/11/26 08:00:27;;;;;;;;;;;;;;;26.38;27.10;101605.09;4976344;28;1118;-24
2022/11/26 08:02:52;;;;;;;;;;;;;;;27.02;26.04;101607.56;4975984;28;1161;-27
2022/11/26 08:05:18;;;;;;;;;;;;;;;27.14;25.64;101608.09;4976454;28;1114;-22
2022/11/26 08:07:43;;;;;;;;;;;;;;;27.37;25.70;101612.94;4977009;28;1204;-16
2022/11/26 08:10:09;;;;;;;;;;;;;;;27.24;25.80;101605.25;4975825;28;2800;-16
2022/11/26 08:12:34;;;;;;;;;;;;;;;27.13;26.13;101595.63;4976578;28;1989;-16
2022/11/26 08:14:59;;;;;;;;;;;;;;;27.08;26.26;101611.44;4975890;28;1138;-16
2022/11/26 08:17:24;;;;;;;;;;;;;;;27.09;26.13;101601.50;4976325;28;1174;-16
2022/11/26 08:19:50;;;;;;;;;;;;;;;27.04;26.05;101609.25;4974263;28;1317;-16
2022/11/26 08:22:15;;;;;;;;;;;;;;;27.08;25.92;101603.34;4976228;28;1145;-16
2022/11/26 08:24:40;;;;;;;;;;;;;;;27.09;26.13;101612.31;4975880;28;1122;-16
2022/11/26 08:27:05;;;;;;;;;;;;;;;25.90;28.08;101619.69;4976550;28;1091;-16
2022/11/26 08:29:31;;;;;;;;;;;;;;;25.28;29.19;101591.53;4976682;28;1169;-16
2022/11/26 08:31:56;;;;;;;;;;;;;;;25.43;28.98;101615.25;4976133;28;1150;-16
2022/11/26 08:34:21;;;;;;;;;;;;;;;26.07;28.23;101617.13;4979782;28;1914;-16
2022/11/26 08:36:47;;;;;;;;;;;;;;;26.88;26.49;101613.50;4980215;28;1133;-16
2022/11/26 08:39:13;;;;;;;;;;;;;;;27.04;26.31;101611.94;4979716;28;2358;-16
2022/11/26 08:41:38;;;;;;;;;;;;;;;27.16;26.35;101623.31;4980068;28;1122;-16
2022/11/26 08:44:03;;;;;;;;;;;;;;;27.09;26.13;101623.13;4979681;28;1172;-16
2022/11/26 08:46:29;;;;;;;;;;;;;;;27.09;26.25;101620.41;4979995;28;1141;-17
2022/11/26 08:48:55;;;;;;;;;;;;;;;27.11;25.85;101626.50;4979933;28;1172;-16
2022/11/26 08:51:20;;;;;;;;;;;;;;;26.28;27.14;101630.28;4979112;28;1157;-16
2022/11/26 08:53:45;;;;;;;;;;;;;;;27.59;25.63;101624.13;4979600;28;1906;-16
2022/11/26 08:56:11;;;;;;;;;;;;;;;26.45;27.22;101625.06;4979957;28;1134;-16
2022/11/26 08:58:40;;;;;;;;;;;;;;;26.77;26.16;101628.13;4980093;28;1150;-16
2022/11/26 09:01:06;;;;;;;;;;;;;;;26.93;26.02;101616.59;4979955;28;1094;-16
2022/11/26 09:03:32;;;;;;;;;;;;;;;26.90;26.32;101615.06;4978655;28;1224;-16
2022/11/26 09:05:59;;;;;;;;;;;;;;;26.84;25.92;101601.34;4979567;28;1117;-16
2022/11/26 09:08:26;;;;;;;;;;;;;;;26.99;25.82;101610.53;4979079;28;1181;-16
2022/11/26 09:10:52;;;;;;;;;;;;;;;26.40;26.82;101620.13;4979092;28;1019;-16
2022/11/26 09:13:18;;;;;;;;;;;;;;;26.17;27.63;101607.09;4979069;28;1906;-16
2022/11/26 09:15:43;;;;;;;;;;;;;;;25.72;28.62;101608.91;4978704;28;1118;-16
2022/11/26 09:18:08;;;;;;;;;;;;;;;26.24;27.55;101603.78;4979509;28;1118;-16
2022/11/26 09:20:34;;;;;;;;;;;;;;;26.69;26.79;101604.66;4979249;28;1197;-16
2022/11/26 09:22:59;;;;;;;;;;;;;;;26.96;26.39;101613.56;4978937;28;1583;-17
2022/11/26 09:25:24;;;;;;;;;;;;;;;26.89;26.13;101607.94;4979158;28;1228;-16
2022/11/26 09:27:49;;;;;;;;;;;;;;;26.86;26.46;101604.75;4979008;28;1146;-16
2022/11/26 09:30:15;;;;;;;;;;;;;;;26.90;26.41;101606.97;4978659;28;1145;-17
2022/11/26 09:32:40;;;;;;;;;;;;;;;26.40;27.68;101598.56;4978107;28;1981;-16
2022/11/26 09:35:07;;;;;;;;;;;;;;;27.77;25.46;101603.41;4978869;28;1134;-16
2022/11/26 09:37:33;;;;;;;;;;;;;;;27.63;25.26;101595.75;4978939;28;1138;-16
2022/11/26 09:39:58;;;;;;;;;;;;;;;27.25;25.67;101593.47;4978611;28;2522;-17
2022/11/26 09:42:42;;;;;;;;;;;;;;;26.95;25.68;101579.47;4978247;28;1110;-17
2022/11/26 09:45:22;;;;;;;;;;;;;;;26.59;26.18;101583.16;4965033;28;1161;-17
2022/11/26 09:47:47;;;;;;;;;;;;;;;26.25;27.09;101576.66;4961278;28;1170;-17
2022/11/26 09:50:13;;;;;;;;;;;;;;;25.61;28.12;101582.97;4961136;28;1189;-17
2022/11/26 09:52:58;;;;;;;;;;;;;;;26.24;26.93;101574.97;4977389;28;1910;-17
2022/11/26 09:55:28;;;;;;;;;;;;;;;26.48;26.92;101578.03;4961152;28;1177;-17
2022/11/26 09:58:02;;;;;;;;;;;;;;;26.94;26.06;101566.13;4978304;28;1161;-17
2022/11/26 10:00:29;;;;;;;;;;;;;;;26.75;26.10;101576.16;4978193;28;1121;-17
2022/11/26 10:02:55;;;;;;;;;;;;;;;26.44;26.33;101574.81;4977832;28;1110;-17
2022/11/26 10:05:21;;;;;;;;;;;;;;;26.29;26.71;101583.44;4960884;28;1201;-17
2022/11/26 10:07:49;;;;;;;;;;;;;;;26.35;26.96;101579.28;4960721;28;1127;-17
2022/11/26 10:10:18;;;;;;;;;;;;;;;26.73;26.13;101576.31;4977988;28;2616;-17
2022/11/26 10:13:02;;;;;;;;;;;;;;;26.61;26.46;101577.63;4977830;28;1890;-18
2022/11/26 10:15:31;;;;;;;;;;;;;;;26.00;27.04;101572.91;4977137;28;1102;-17
2022/11/26 10:18:19;;;;;;;;;;;;;;;26.22;26.87;101570.75;4961066;28;1122;-17
2022/11/26 10:20:50;;;;;;;;;;;;;;;26.15;22.79;101565.13;4978118;28;1185;-17
2022/11/26 10:23:17;;;;;;;;;;;;;;;25.96;24.24;101561.59;4977581;28;1248;-17
2022/11/26 10:25:47;;;;;;;;;;;;;;;25.67;26.49;101568.09;4977796;28;1122;-17
2022/11/26 10:28:20;;;;;;;;;;;;;;;26.26;25.83;101559.47;4960878;28;899;-17
2022/11/26 10:30:47;;;;;;;;;;;;;;;26.31;26.11;101563.56;4977740;28;1133;-17
2022/11/26 10:33:14;;;;;;;;;;;;;;;26.16;26.34;101558.72;4959937;28;1970;-17
2022/11/26 10:35:39;;;;;;;;;;;;;;;26.24;26.38;101568.75;4960212;28;1300;-18
2022/11/26 10:38:04;;;;;;;;;;;;;;;26.27;26.57;101568.41;4960174;28;1134;-17
2022/11/26 10:40:30;;;;;;;;;;;;;;;26.08;26.20;101569.44;4977476;28;2544;-18
2022/11/26 10:42:57;;;;;;;;;;;;;;;26.50;26.13;101562.53;4977607;28;1138;-18
2022/11/26 10:45:23;;;;;;;;;;;;;;;26.29;26.12;101561.84;4959910;28;1224;-17
2022/11/26 10:47:49;;;;;;;;;;;;;;;25.90;26.81;101568.47;4977174;28;1118;-18
2022/11/26 10:50:20;;;;;;;;;;;;;;;26.26;26.62;101574.81;4977550;28;1082;-18
2022/11/26 10:52:45;;;;;;;;;;;;;;;26.21;26.44;101574.44;4976739;28;1963;-17
2022/11/26 10:55:29;;;;;;;;;;;;;;;25.86;26.81;101575.16;4959539;28;1158;-18
2022/11/26 10:58:01;;;;;;;;;;;;;;;26.06;26.78;101582.25;4943604;28;1139;-18
2022/11/26 11:00:37;;;;;;;;;;;;;;;26.16;26.83;101582.97;4960754;28;1235;-18
2022/11/26 11:03:02;;;;;;;;;;;;;;;26.17;26.80;101582.81;4977644;28;1150;-17
2022/11/26 11:05:28;;;;;;;;;;;;;;;25.63;27.61;101585.53;4976454;28;948;-18
2022/11/26 11:07:53;;;;;;;;;;;;;;;26.07;27.04;101583.94;4976990;28;1181;-18
2022/11/26 11:10:20;;;;;;;;;;;;;;;26.19;26.61;101582.69;4976596;28;2539;-17
2022/11/26 11:13:10;;;;;;;;;;;;;;;25.44;27.81;101585.50;4977454;28;1965;-18
2022/11/26 11:15:35;;;;;;;;;;;;;;;25.30;28.68;101589.56;4970983;28;1377;-18
2022/11/26 11:18:04;;;;;;;;;;;;;;;26.02;27.27;101596.03;4959907;28;1201;-18
2022/11/26 11:20:31;;;;;;;;;;;;;;;26.27;27.02;101598.09;4959681;28;1141;-17
2022/11/26 11:22:59;;;;;;;;;;;;;;;25.88;27.66;101600.13;4976967;28;1197;-18
2022/11/26 11:25:25;;;;;;;;;;;;;;;26.34;26.94;101595.63;4976555;28;1169;-17
2022/11/26 11:27:50;;;;;;;;;;;;;;;26.33;26.85;101589.41;4958875;28;1167;-18
2022/11/26 11:30:23;;;;;;;;;;;;;;;25.96;27.04;101593.94;4960072;28;1297;-18
2022/11/26 11:32:49;;;;;;;;;;;;;;;26.07;27.14;101576.69;4976678;28;1972;-18
2022/11/26 11:35:22;;;;;;;;;;;;;;;27.13;25.89;101583.94;4976229;28;1153;-18
2022/11/26 11:37:48;;;;;;;;;;;;;;;26.52;26.67;101582.97;4976483;28;995;-17
2022/11/26 11:40:14;;;;;;;;;;;;;;;26.38;26.71;101575.44;4976334;28;2629;-17
2022/11/26 11:42:39;;;;;;;;;;;;;;;26.29;27.01;101567.25;4976616;28;1181;-17
2022/11/26 11:45:05;;;;;;;;;;;;;;;26.39;26.50;101577.97;4976004;28;1125;-18
2022/11/26 11:47:33;;;;;;;;;;;;;;;26.31;26.66;101579.75;4958853;28;1166;-17
2022/11/26 11:50:10;;;;;;;;;;;;;;;26.30;26.85;101570.78;4976431;28;1114;-17
2022/11/26 11:52:39;;;;;;;;;;;;;;;26.26;26.89;101567.56;4976195;28;1956;-18
2022/11/26 11:55:22;;;;;;;;;;;;;;;26.32;24.16;101559.84;4976382;28;1126;-18
2022/11/26 11:58:00;;;;;;;;;;;;;;;26.93;25.73;101564.44;4959094;28;1138;-16
2022/11/26 12:00:29;;;;;;;;;;;;;;;27.60;25.10;101576.31;4959418;28;1110;-17
2022/11/26 12:03:07;;;;;;;;;;;;;;;26.83;26.27;101560.00;4976493;28;1193;-17
2022/11/26 12:05:38;;;;;;;;;;;;;;;26.71;26.23;101572.09;4976491;28;891;-17
2022/11/26 12:08:22;;;;;;;;;;;;;;;27.28;25.43;101580.66;4977845;28;1122;-17
2022/11/26 12:10:53;;;;;;;;;;;;;;;26.71;26.11;101581.03;4980107;28;2663;-17
2022/11/26 12:13:19;;;;;;;;;;;;;;;26.91;26.01;101583.50;4979723;28;1894;-17
2022/11/26 12:15:50;;;;;;;;;;;;;;;27.84;23.00;101583.63;4963249;28;1139;-17
2022/11/26 12:18:15;;;;;;;;;;;;;;;28.17;22.46;101587.38;4979902;28;1067;-17
2022/11/26 12:20:45;;;;;;;;;;;;;;;27.62;23.82;101580.56;4979735;28;1134;-17
2022/11/26 12:23:25;;;;;;;;;;;;;;;26.67;25.01;101581.50;4962563;28;1181;-17
2022/11/26 12:25:52;;;;;;;;;;;;;;;26.57;25.04;101589.72;4980306;28;1248;-17
2022/11/26 12:28:20;;;;;;;;;;;;;;;26.31;25.47;101585.97;4961959;28;1134;-17
2022/11/26 12:31:01;;;;;;;;;;;;;;;26.10;25.72;101600.66;4979835;28;1200;-17
2022/11/26 12:33:46;;;;;;;;;;;;;;;27.14;24.75;101586.50;4979633;28;1946;-17
2022/11/26 12:36:22;;;;;;;;;;;;;;;26.39;25.81;101587.94;4979209;28;1171;-17
2022/11/26 12:38:51;;;;;;;;;;;;;;;26.27;26.07;101590.00;4962551;28;1918;-17
2022/11/26 12:41:35;;;;;;;;;;;;;;;27.24;24.44;101580.94;4979389;28;1170;-18
2022/11/26 12:44:04;;;;;;;;;;;;;;;26.41;25.74;101575.09;4979134;28;1122;-17
2022/11/26 12:46:38;;;;;;;;;;;;;;;26.20;26.00;101588.91;4962187;28;1245;-17
2022/11/26 12:49:14;;;;;;;;;;;;;;;27.08;24.90;101586.28;4962060;28;1174;-17